Time;durP1;ratioP1;P1;durP2;ratioP2;P2;SDS_P1;SDS_P2;PMS_P1;PMS_P2;Temp;Humidity;BMP_temperature;BMP_pressure;BME280_temperature;BME280_humidity;BME280_pressure;Samples;Min_cycle;Max_cycle;Signal;HPM_P1;HPM_P2
2022/12/01 00:01:27;;;;;;;55.78;22.00;;;;;;;;;;5015185;28;20061;-83
2022/12/01 00:03:53;;;;;;;57.45;24.40;;;;;;;;;;5033271;28;20068;-82
2022/12/01 00:06:23;;;;;;;59.65;24.80;;;;;;;;;;5051317;28;20057;-80
2022/12/01 00:11:41;;;;;;;62.35;25.73;;;;;;;;;;5042896;28;20144;-81
2022/12/01 00:14:10;;;;;;;65.45;27.15;;;;;;;;;;5038883;28;20049;-81
2022/12/01 00:16:39;;;;;;;66.00;26.08;;;;;;;;;;5049446;28;20390;-81
2022/12/01 00:19:05;;;;;;;71.70;27.98;;;;;;;;;;5029411;28;20049;-81
2022/12/01 00:21:32;;;;;;;67.20;28.02;;;;;;;;;;5033590;28;20053;-82
2022/12/01 00:23:58;;;;;;;76.32;29.25;;;;;;;;;;5036338;28;20056;-83
2022/12/01 00:26:25;;;;;;;70.63;28.02;;;;;;;;;;5017032;28;20389;-83
2022/12/01 00:28:52;;;;;;;74.15;28.02;;;;;;;;;;5034856;28;20576;-84
2022/12/01 00:31:19;;;;;;;77.47;29.80;;;;;;;;;;5017094;28;20473;-81
2022/12/01 00:33:45;;;;;;;72.38;29.00;;;;;;;;;;5016305;28;20073;-82
2022/12/01 00:36:12;;;;;;;79.28;30.33;;;;;;;;;;5033115;28;20111;-82
2022/12/01 00:38:38;;;;;;;79.97;31.58;;;;;;;;;;5034767;28;20045;-81
2022/12/01 00:41:05;;;;;;;83.18;31.83;;;;;;;;;;5034078;28;20073;-83
2022/12/01 00:43:31;;;;;;;87.18;31.45;;;;;;;;;;5033996;28;20057;-83
2022/12/01 00:45:58;;;;;;;80.82;30.52;;;;;;;;;;5034038;28;20050;-81
2022/12/01 00:48:26;;;;;;;90.30;33.63;;;;;;;;;;5016745;28;20049;-83
2022/12/01 00:50:53;;;;;;;95.35;33.20;;;;;;;;;;5015947;28;20046;-81
2022/12/01 00:53:20;;;;;;;100.28;33.97;;;;;;;;;;5034146;28;20045;-83
2022/12/01 00:55:46;;;;;;;105.95;36.00;;;;;;;;;;5034448;28;20072;-82
2022/12/01 00:58:15;;;;;;;111.97;37.78;;;;;;;;;;5015946;28;20514;-83
2022/12/01 01:00:42;;;;;;;109.13;36.45;;;;;;;;;;5033193;28;20503;-82
2022/12/01 01:03:13;;;;;;;106.32;36.10;;;;;;;;;;5016275;28;20056;-82
2022/12/01 01:05:40;;;;;;;115.47;37.42;;;;;;;;;;5015578;28;20053;-82
2022/12/01 01:08:11;;;;;;;113.25;37.58;;;;;;;;;;5032898;28;20041;-82
2022/12/01 01:10:38;;;;;;;117.60;38.00;;;;;;;;;;5015448;28;20056;-83
2022/12/01 01:13:04;;;;;;;110.90;36.97;;;;;;;;;;5033255;28;20117;-81
2022/12/01 01:15:31;;;;;;;120.55;38.83;;;;;;;;;;5015728;28;20045;-80
2022/12/01 01:17:57;;;;;;;118.88;39.80;;;;;;;;;;5048629;28;20053;-79
2022/12/01 01:20:24;;;;;;;114.78;37.88;;;;;;;;;;5050232;28;20061;-79
2022/12/01 01:22:50;;;;;;;111.22;38.13;;;;;;;;;;5027020;28;20061;-82
2022/12/01 01:25:16;;;;;;;126.15;37.88;;;;;;;;;;5035334;28;20160;-81
2022/12/01 01:27:43;;;;;;;125.18;38.65;;;;;;;;;;5017976;28;20053;-81
2022/12/01 01:30:10;;;;;;;128.18;40.05;;;;;;;;;;5023449;28;20056;-79
2022/12/01 01:32:36;;;;;;;136.32;39.75;;;;;;;;;;5031858;28;20052;-84
2022/12/01 01:35:03;;;;;;;130.82;39.33;;;;;;;;;;5032048;28;20049;-81
2022/12/01 01:37:29;;;;;;;129.10;38.67;;;;;;;;;;5014330;28;20049;-81
2022/12/01 01:39:55;;;;;;;127.15;39.28;;;;;;;;;;5015650;28;20054;-81
2022/12/01 01:42:22;;;;;;;132.82;39.15;;;;;;;;;;5015335;28;20053;-83
2022/12/01 01:44:48;;;;;;;119.07;37.35;;;;;;;;;;5033898;28;20056;-83
2022/12/01 01:47:19;;;;;;;136.60;36.90;;;;;;;;;;5034116;28;20073;-83
2022/12/01 01:49:45;;;;;;;115.00;35.53;;;;;;;;;;5015300;28;20046;-82
2022/12/01 01:52:13;;;;;;;115.05;35.95;;;;;;;;;;5035979;28;20053;-82
2022/12/01 01:54:41;;;;;;;109.68;35.85;;;;;;;;;;5037339;28;20053;-83
2022/12/01 01:57:08;;;;;;;109.68;35.35;;;;;;;;;;5037269;28;20061;-82
2022/12/01 01:59:37;;;;;;;118.75;34.08;;;;;;;;;;5037378;28;20056;-82
2022/12/01 02:02:05;;;;;;;125.82;31.83;;;;;;;;;;5037290;28;20306;-84
2022/12/01 02:04:33;;;;;;;122.90;32.13;;;;;;;;;;5036260;28;20511;-81
2022/12/01 02:07:00;;;;;;;124.30;32.22;;;;;;;;;;5018805;28;20059;-82
2022/12/01 02:09:26;;;;;;;113.50;32.45;;;;;;;;;;5018964;28;20053;-82
2022/12/01 02:12:15;;;;;;;113.78;32.67;;;;;;;;;;5020225;28;20055;-82
2022/12/01 02:14:54;;;;;;;121.78;33.25;;;;;;;;;;5024574;28;20067;-83
2022/12/01 02:17:23;;;;;;;112.25;34.33;;;;;;;;;;5045277;28;20434;-82
2022/12/01 02:20:08;;;;;;;121.28;32.95;;;;;;;;;;5035129;28;20053;-81
2022/12/01 02:22:35;;;;;;;106.85;34.45;;;;;;;;;;5017492;28;20053;-82
2022/12/01 02:25:11;;;;;;;107.25;31.48;;;;;;;;;;5035965;28;20068;-81
2022/12/01 02:27:40;;;;;;;103.50;32.78;;;;;;;;;;5036046;28;20054;-81
2022/12/01 02:30:07;;;;;;;126.78;35.28;;;;;;;;;;5035670;28;20053;-82
2022/12/01 02:32:45;;;;;;;103.18;32.35;;;;;;;;;;5035884;28;20065;-81
2022/12/01 02:35:15;;;;;;;109.88;32.13;;;;;;;;;;5036322;28;20089;-82
2022/12/01 02:37:52;;;;;;;105.70;33.50;;;;;;;;;;5034363;28;20499;-82
2022/12/01 02:40:24;;;;;;;132.02;31.45;;;;;;;;;;5016196;28;20057;-80
2022/12/01 02:43:02;;;;;;;116.65;32.05;;;;;;;;;;5000276;28;20081;-83
2022/12/01 02:45:36;;;;;;;132.05;32.92;;;;;;;;;;5017554;28;20119;-81
2022/12/01 02:48:05;;;;;;;111.60;35.05;;;;;;;;;;4998948;28;20490;-82
2022/12/01 02:50:32;;;;;;;170.27;33.78;;;;;;;;;;5016964;28;20046;-83
2022/12/01 02:53:00;;;;;;;130.85;34.30;;;;;;;;;;5017053;28;20398;-81
2022/12/01 02:55:26;;;;;;;120.13;33.50;;;;;;;;;;5017261;28;20058;-83
2022/12/01 02:57:52;;;;;;;132.38;33.13;;;;;;;;;;5017116;28;20549;-82
2022/12/01 03:00:19;;;;;;;105.53;34.42;;;;;;;;;;5016305;28;20061;-82
2022/12/01 03:02:48;;;;;;;116.30;31.92;;;;;;;;;;5023694;28;20128;-80
2022/12/01 03:05:26;;;;;;;139.90;33.05;;;;;;;;;;4999349;28;20525;-81
2022/12/01 03:08:01;;;;;;;103.78;33.20;;;;;;;;;;5014536;28;20057;-81
2022/12/01 03:10:28;;;;;;;;;;;;;;;;;;4998033;28;20495;-81
2022/12/01 03:13:07;;;;;;;96.82;31.67;;;;;;;;;;5014854;28;20322;-83
2022/12/01 03:15:52;;;;;;;131.10;33.28;;;;;;;;;;5015033;28;20053;-83
2022/12/01 03:18:26;;;;;;;108.60;34.10;;;;;;;;;;5019625;28;20053;-80
2022/12/01 03:21:20;;;;;;;120.97;31.75;;;;;;;;;;5028118;28;20426;-81
2022/12/01 03:23:49;;;;;;;114.20;31.80;;;;;;;;;;5030342;28;20437;-79
2022/12/01 03:26:19;;;;;;;109.32;33.83;;;;;;;;;;5019640;28;20056;-82
2022/12/01 03:28:49;;;;;;;93.43;31.17;;;;;;;;;;4999435;28;20057;-82
2022/12/01 03:31:18;;;;;;;110.72;33.78;;;;;;;;;;5017202;28;20065;-82
2022/12/01 03:33:48;;;;;;;108.65;32.90;;;;;;;;;;4999299;28;20042;-82
2022/12/01 03:36:24;;;;;;;100.35;31.83;;;;;;;;;;5016866;28;20053;-81
2022/12/01 03:38:54;;;;;;;134.48;33.13;;;;;;;;;;4999123;28;20042;-83
2022/12/01 03:41:25;;;;;;;124.75;32.22;;;;;;;;;;5015564;28;20057;-82
2022/12/01 03:43:54;;;;;;;111.40;32.95;;;;;;;;;;4997804;28;20518;-82
2022/12/01 03:46:47;;;;;;;118.22;34.55;;;;;;;;;;5016610;28;20507;-82
2022/12/01 03:49:15;;;;;;;130.73;34.53;;;;;;;;;;5013327;28;20062;-79
2022/12/01 03:51:44;;;;;;;110.95;33.83;;;;;;;;;;5033700;28;20058;-79
2022/12/01 03:54:25;;;;;;;124.50;34.25;;;;;;;;;;5033094;28;20140;-81
2022/12/01 03:56:54;;;;;;;103.05;32.65;;;;;;;;;;5028925;28;20067;-81
2022/12/01 03:59:22;;;;;;;102.40;31.83;;;;;;;;;;5005939;28;20050;-83
2022/12/01 04:01:49;;;;;;;105.90;33.10;;;;;;;;;;5016918;28;20132;-82
2022/12/01 04:04:15;;;;;;;118.22;33.92;;;;;;;;;;5005400;28;20076;-80
2022/12/01 04:06:44;;;;;;;106.32;32.45;;;;;;;;;;5030624;28;20033;-81
2022/12/01 04:09:11;;;;;;;107.22;31.55;;;;;;;;;;5031222;28;20036;-79
2022/12/01 04:14:23;;;;;;;73.10;22.13;;;;;;;;;;5029846;28;20134;-79
2022/12/01 04:16:49;;;;;;;98.63;30.67;;;;;;;;;;5030806;28;20030;-79
2022/12/01 04:19:15;;;;;;;102.28;29.40;;;;;;;;;;5030571;28;20053;-79
2022/12/01 04:21:42;;;;;;;100.70;29.65;;;;;;;;;;5031367;28;20050;-78
2022/12/01 04:24:10;;;;;;;92.75;30.08;;;;;;;;;;5011581;28;20105;-83
2022/12/01 04:26:36;;;;;;;95.63;29.58;;;;;;;;;;5016284;28;20065;-82
2022/12/01 04:29:04;;;;;;;87.35;28.63;;;;;;;;;;4996700;28;20050;-82
2022/12/01 04:31:30;;;;;;;89.28;29.50;;;;;;;;;;5014399;28;20046;-81
2022/12/01 04:33:58;;;;;;;89.90;29.00;;;;;;;;;;4995753;28;20057;-81
2022/12/01 04:36:24;;;;;;;86.95;27.60;;;;;;;;;;5013907;28;20050;-80
2022/12/01 04:38:51;;;;;;;89.35;26.58;;;;;;;;;;5021818;28;20495;-81
2022/12/01 04:41:17;;;;;;;80.15;26.33;;;;;;;;;;5002328;28;20221;-82
2022/12/01 04:43:44;;;;;;;83.30;27.30;;;;;;;;;;5012608;28;20053;-81
2022/12/01 04:46:10;;;;;;;87.07;26.70;;;;;;;;;;5012507;28;20052;-81
2022/12/01 04:48:38;;;;;;;76.95;24.95;;;;;;;;;;4995823;28;20054;-82
2022/12/01 04:51:05;;;;;;;76.68;25.52;;;;;;;;;;5013049;28;20042;-82
2022/12/01 04:53:31;;;;;;;79.60;25.42;;;;;;;;;;5013020;28;20215;-81
2022/12/01 04:55:58;;;;;;;84.85;26.35;;;;;;;;;;4995211;28;20046;-82
2022/12/01 04:58:25;;;;;;;81.75;26.45;;;;;;;;;;5012935;28;20049;-82
2022/12/01 05:00:56;;;;;;;75.78;25.98;;;;;;;;;;5013509;28;20045;-83
2022/12/01 05:03:24;;;;;;;85.72;25.40;;;;;;;;;;4995646;28;20146;-81
2022/12/01 05:05:59;;;;;;;85.03;26.48;;;;;;;;;;5014619;28;20133;-83
2022/12/01 05:08:26;;;;;;;81.68;26.05;;;;;;;;;;5036606;28;20059;-81
2022/12/01 05:10:54;;;;;;;85.90;26.08;;;;;;;;;;5029322;28;20029;-80
2022/12/01 05:13:20;;;;;;;87.43;26.67;;;;;;;;;;5036327;28;20045;-82
2022/12/01 05:15:48;;;;;;;95.15;28.30;;;;;;;;;;5019105;28;20127;-83
2022/12/01 05:18:14;;;;;;;81.88;26.17;;;;;;;;;;5017665;28;20125;-82
2022/12/01 05:20:56;;;;;;;78.60;25.42;;;;;;;;;;5033062;28;20095;-83
2022/12/01 05:23:23;;;;;;;77.30;25.65;;;;;;;;;;5034991;28;20053;-83
2022/12/01 05:25:50;;;;;;;83.20;25.70;;;;;;;;;;4988811;28;1156973;-83
2022/12/01 05:28:16;;;;;;;80.70;24.95;;;;;;;;;;5002808;28;20046;-81
2022/12/01 05:30:43;;;;;;;75.90;24.73;;;;;;;;;;5019722;28;20037;-82
2022/12/01 05:33:09;;;;;;;67.10;22.85;;;;;;;;;;5002995;28;20610;-81
2022/12/01 05:35:38;;;;;;;75.57;24.00;;;;;;;;;;5016870;28;20052;-81
2022/12/01 05:38:05;;;;;;;81.28;24.73;;;;;;;;;;5020866;28;20068;-82
2022/12/01 05:40:34;;;;;;;69.35;22.40;;;;;;;;;;5032142;28;20115;-83
2022/12/01 05:43:03;;;;;;;69.70;22.13;;;;;;;;;;5022496;28;20075;-83
2022/12/01 05:45:29;;;;;;;75.55;24.13;;;;;;;;;;5038258;28;20075;-83
2022/12/01 05:47:56;;;;;;;78.93;22.77;;;;;;;;;;5021161;28;20046;-81
2022/12/01 05:50:23;;;;;;;74.53;23.55;;;;;;;;;;5035266;28;20053;-84
2022/12/01 05:52:50;;;;;;;79.43;24.20;;;;;;;;;;5015496;28;20054;-83
2022/12/01 05:55:16;;;;;;;80.13;24.17;;;;;;;;;;5015612;28;20413;-83
2022/12/01 05:57:42;;;;;;;80.88;23.02;;;;;;;;;;5034430;28;20120;-81
2022/12/01 06:00:10;;;;;;;73.57;22.70;;;;;;;;;;5016708;28;20077;-83
2022/12/01 06:02:36;;;;;;;81.40;23.27;;;;;;;;;;5034138;28;20080;-81
2022/12/01 06:05:03;;;;;;;76.07;23.23;;;;;;;;;;5034155;28;20049;-81
2022/12/01 06:07:29;;;;;;;80.28;24.75;;;;;;;;;;5033148;28;20151;-79
2022/12/01 06:09:56;;;;;;;72.72;22.45;;;;;;;;;;5032816;28;20045;-81
2022/12/01 06:12:22;;;;;;;74.28;23.02;;;;;;;;;;5017225;28;20045;-80
2022/12/01 06:14:48;;;;;;;69.60;22.50;;;;;;;;;;5015333;28;20048;-83
2022/12/01 06:17:15;;;;;;;83.32;25.40;;;;;;;;;;5011795;28;20534;-83
2022/12/01 06:19:42;;;;;;;76.78;23.52;;;;;;;;;;5029501;28;20057;-83
2022/12/01 06:22:08;;;;;;;78.78;23.42;;;;;;;;;;5011756;28;20072;-81
2022/12/01 06:24:35;;;;;;;73.82;23.35;;;;;;;;;;5029805;28;20053;-83
2022/12/01 06:27:01;;;;;;;77.82;23.30;;;;;;;;;;5012392;28;20060;-83
2022/12/01 06:29:28;;;;;;;80.22;23.98;;;;;;;;;;5030114;28;20050;-81
2022/12/01 06:31:54;;;;;;;82.18;24.73;;;;;;;;;;5030078;28;20049;-82
2022/12/01 06:34:21;;;;;;;73.55;23.58;;;;;;;;;;5012928;28;20088;-81
2022/12/01 06:36:47;;;;;;;76.18;24.35;;;;;;;;;;5031034;28;20046;-82
2022/12/01 06:39:14;;;;;;;73.90;23.98;;;;;;;;;;5015977;28;20046;-80
2022/12/01 06:41:41;;;;;;;75.45;24.13;;;;;;;;;;5033462;28;20072;-81
2022/12/01 06:44:07;;;;;;;84.82;25.00;;;;;;;;;;5015952;28;20049;-82
2022/12/01 06:46:33;;;;;;;84.40;25.42;;;;;;;;;;5034168;28;20058;-82
2022/12/01 06:49:00;;;;;;;86.40;24.77;;;;;;;;;;5035571;28;20049;-80
2022/12/01 06:51:27;;;;;;;75.57;23.05;;;;;;;;;;5016908;28;20467;-81
2022/12/01 06:53:54;;;;;;;87.63;24.38;;;;;;;;;;5033335;28;20042;-81
2022/12/01 06:56:20;;;;;;;84.93;25.17;;;;;;;;;;5015603;28;20056;-80
2022/12/01 06:58:50;;;;;;;85.72;24.98;;;;;;;;;;5032500;28;20073;-81
2022/12/01 07:01:17;;;;;;;83.40;24.50;;;;;;;;;;5015228;28;20498;-81
2022/12/01 07:03:48;;;;;;;80.55;23.67;;;;;;;;;;5032831;28;20429;-82
2022/12/01 07:06:17;;;;;;;81.35;23.70;;;;;;;;;;5015129;28;20061;-80
2022/12/01 07:08:44;;;;;;;81.70;24.92;;;;;;;;;;5032273;28;20167;-84
2022/12/01 07:11:11;;;;;;;81.03;24.70;;;;;;;;;;5032600;28;20041;-82
2022/12/01 07:13:38;;;;;;;77.55;23.85;;;;;;;;;;5032350;28;20057;-82
2022/12/01 07:16:05;;;;;;;80.88;24.27;;;;;;;;;;5032267;28;20104;-81
2022/12/01 07:18:32;;;;;;;77.63;23.60;;;;;;;;;;5014611;28;20390;-83
2022/12/01 07:21:01;;;;;;;77.35;24.20;;;;;;;;;;5031439;28;20517;-81
2022/12/01 07:23:28;;;;;;;75.22;22.98;;;;;;;;;;5014262;28;20132;-83
2022/12/01 07:26:05;;;;;;;80.13;23.80;;;;;;;;;;5024308;28;20056;-80
2022/12/01 07:28:31;;;;;;;73.88;23.77;;;;;;;;;;5034176;28;20049;-79
2022/12/01 07:31:02;;;;;;;77.75;23.05;;;;;;;;;;5030069;28;20105;-82
2022/12/01 07:33:29;;;;;;;78.00;23.98;;;;;;;;;;5015458;28;20048;-80
2022/12/01 07:35:55;;;;;;;69.22;22.13;;;;;;;;;;5034791;28;20049;-81
2022/12/01 07:38:22;;;;;;;83.53;24.20;;;;;;;;;;5026341;28;20057;-83
2022/12/01 07:40:48;;;;;;;71.55;21.02;;;;;;;;;;5043802;28;20072;-81
2022/12/01 07:43:14;;;;;;;75.53;22.83;;;;;;;;;;5022518;28;20057;-82
2022/12/01 07:45:41;;;;;;;72.72;23.05;;;;;;;;;;5017145;28;20049;-83
2022/12/01 07:48:07;;;;;;;73.35;22.10;;;;;;;;;;5030672;28;20135;-79
2022/12/01 07:50:34;;;;;;;69.07;22.35;;;;;;;;;;5030995;28;20052;-81
2022/12/01 07:53:00;;;;;;;79.13;22.08;;;;;;;;;;5015854;28;20107;-81
2022/12/01 07:55:26;;;;;;;77.22;21.83;;;;;;;;;;5033275;28;20449;-81
2022/12/01 07:57:53;;;;;;;75.78;22.25;;;;;;;;;;5034422;28;20425;-82
2022/12/01 08:00:19;;;;;;;75.97;22.27;;;;;;;;;;5034537;28;20050;-82
2022/12/01 08:02:48;;;;;;;84.75;23.63;;;;;;;;;;5033649;28;20045;-83
2022/12/01 08:05:15;;;;;;;76.30;21.58;;;;;;;;;;5033725;28;20450;-82
2022/12/01 08:07:41;;;;;;;84.07;22.90;;;;;;;;;;5016212;28;20056;-83
2022/12/01 08:10:08;;;;;;;89.80;23.27;;;;;;;;;;5046170;28;20148;-82
2022/12/01 08:12:34;;;;;;;83.72;23.38;;;;;;;;;;5049716;28;20113;-81
2022/12/01 08:15:01;;;;;;;83.28;22.38;;;;;;;;;;5049235;28;20052;-80
2022/12/01 08:17:27;;;;;;;85.35;23.13;;;;;;;;;;5049889;28;20073;-82
2022/12/01 08:19:54;;;;;;;80.88;21.98;;;;;;;;;;5049338;28;20080;-82
2022/12/01 08:22:20;;;;;;;81.68;22.70;;;;;;;;;;5032124;28;20045;-81
2022/12/01 08:24:46;;;;;;;80.35;22.52;;;;;;;;;;5029368;28;20073;-82
2022/12/01 08:27:13;;;;;;;79.13;22.75;;;;;;;;;;5032352;28;20053;-82
2022/12/01 08:29:39;;;;;;;83.30;23.23;;;;;;;;;;5032660;28;20057;-83
2022/12/01 08:32:05;;;;;;;91.07;24.00;;;;;;;;;;5032377;28;20123;-83
2022/12/01 08:34:34;;;;;;;86.70;24.38;;;;;;;;;;5032574;28;20056;-82
2022/12/01 08:37:01;;;;;;;87.38;22.70;;;;;;;;;;5014268;28;20053;-82
2022/12/01 08:39:27;;;;;;;89.90;22.52;;;;;;;;;;5031418;28;20041;-82
2022/12/01 08:41:53;;;;;;;84.70;23.42;;;;;;;;;;5013827;28;20053;-82
2022/12/01 08:44:20;;;;;;;93.22;24.42;;;;;;;;;;5031052;28;20525;-82
2022/12/01 08:46:46;;;;;;;89.80;25.10;;;;;;;;;;5032035;28;20057;-82
2022/12/01 08:49:13;;;;;;;84.85;23.77;;;;;;;;;;5031738;28;20057;-82
2022/12/01 08:51:39;;;;;;;91.10;24.33;;;;;;;;;;5037341;28;20063;-80
2022/12/01 08:54:05;;;;;;;84.45;23.60;;;;;;;;;;5047994;28;20049;-80
2022/12/01 08:56:34;;;;;;;84.90;21.70;;;;;;;;;;5047920;28;20046;-80
2022/12/01 08:59:00;;;;;;;87.10;22.83;;;;;;;;;;5016081;28;20056;-83
2022/12/01 09:01:27;;;;;;;71.50;20.52;;;;;;;;;;5013622;28;20140;-83
2022/12/01 09:04:09;;;;;;;74.30;20.58;;;;;;;;;;5031296;28;20050;-83
2022/12/01 09:06:40;;;;;;;73.75;21.55;;;;;;;;;;5013559;28;20473;-83
2022/12/01 09:09:09;;;;;;;68.53;20.00;;;;;;;;;;5014093;28;20612;-81
2022/12/01 09:11:36;;;;;;;63.15;19.17;;;;;;;;;;5033326;28;20068;-82
2022/12/01 09:14:02;;;;;;;65.95;19.65;;;;;;;;;;5030955;28;20402;-82
2022/12/01 09:16:29;;;;;;;61.80;19.05;;;;;;;;;;5030880;28;20475;-81
2022/12/01 09:18:56;;;;;;;65.00;19.20;;;;;;;;;;5037244;28;20132;-82
2022/12/01 09:21:24;;;;;;;69.05;19.90;;;;;;;;;;5029721;28;20057;-82
2022/12/01 09:23:50;;;;;;;78.35;20.58;;;;;;;;;;5029976;28;20046;-82
2022/12/01 09:26:17;;;;;;;76.97;21.83;;;;;;;;;;5029903;28;20175;-81
2022/12/01 09:28:48;;;;;;;75.72;21.90;;;;;;;;;;5012445;28;20080;-81
2022/12/01 09:31:17;;;;;;;85.00;21.52;;;;;;;;;;5012059;28;20054;-81
2022/12/01 09:33:43;;;;;;;64.75;21.08;;;;;;;;;;5036245;28;20115;-81
2022/12/01 09:36:10;;;;;;;77.82;21.95;;;;;;;;;;5030807;28;20045;-80
2022/12/01 09:38:37;;;;;;;70.47;21.15;;;;;;;;;;5030420;28;20498;-82
2022/12/01 09:41:11;;;;;;;81.28;22.17;;;;;;;;;;5022816;28;20148;-79
2022/12/01 09:43:42;;;;;;;78.82;21.45;;;;;;;;;;5035005;28;20056;-81
2022/12/01 09:46:11;;;;;;;81.55;21.73;;;;;;;;;;5030702;28;20046;-82
2022/12/01 09:48:45;;;;;;;85.75;22.45;;;;;;;;;;5013726;28;20195;-81
2022/12/01 09:51:16;;;;;;;83.95;21.58;;;;;;;;;;5013661;28;20483;-81
2022/12/01 09:53:43;;;;;;;87.85;21.73;;;;;;;;;;5032714;28;20064;-81
2022/12/01 09:56:18;;;;;;;86.22;21.70;;;;;;;;;;5031865;28;20171;-80
2022/12/01 09:58:46;;;;;;;83.50;22.63;;;;;;;;;;5014817;28;20057;-82
2022/12/01 10:01:16;;;;;;;88.00;22.88;;;;;;;;;;5032964;28;20055;-83
2022/12/01 10:03:51;;;;;;;94.70;23.25;;;;;;;;;;5035781;28;20568;-81
2022/12/01 10:06:19;;;;;;;83.10;22.45;;;;;;;;;;5035942;28;20041;-81
2022/12/01 10:09:03;;;;;;;98.63;23.55;;;;;;;;;;5033236;28;20053;-81
2022/12/01 10:11:30;;;;;;;;;;;;;;;;;;5016803;28;20056;-81
2022/12/01 10:13:57;;;;;;;77.95;21.45;;;;;;;;;;5021819;28;19925;-80
2022/12/01 10:16:29;;;;;;;77.97;21.65;;;;;;;;;;5038562;28;20048;-81
2022/12/01 10:19:14;;;;;;;85.80;22.08;;;;;;;;;;5019448;28;20153;-81
2022/12/01 10:21:46;;;;;;;80.93;20.65;;;;;;;;;;5044551;28;20049;-80
2022/12/01 10:24:32;;;;;;;75.72;21.38;;;;;;;;;;5046041;28;20046;-80
2022/12/01 10:27:31;;;;;;;74.85;20.85;;;;;;;;;;5022785;28;20533;-81
2022/12/01 10:30:03;;;;;;;74.75;21.15;;;;;;;;;;4984893;28;20215;-81
2022/12/01 10:32:32;;;;;;;80.05;20.88;;;;;;;;;;5019955;28;20423;-81
2022/12/01 10:34:59;;;;;;;78.82;22.60;;;;;;;;;;5018826;28;20548;-82
2022/12/01 10:37:26;;;;;;;75.93;20.40;;;;;;;;;;5017788;28;20441;-81
2022/12/01 10:39:54;;;;;;;76.10;21.08;;;;;;;;;;5035956;28;20095;-81
2022/12/01 10:42:33;;;;;;;84.10;22.30;;;;;;;;;;5017354;28;20053;-82
2022/12/01 10:45:01;;;;;;;93.22;23.65;;;;;;;;;;5019804;28;20053;-79
2022/12/01 10:47:28;;;;;;;83.40;22.92;;;;;;;;;;5036559;28;20072;-82
2022/12/01 10:49:55;;;;;;;86.00;22.75;;;;;;;;;;5034959;28;20071;-81
2022/12/01 10:52:32;;;;;;;91.30;24.15;;;;;;;;;;5035041;28;20046;-81
2022/12/01 10:54:59;;;;;;;80.93;23.52;;;;;;;;;;5035866;28;20049;-81
2022/12/01 10:57:27;;;;;;;97.22;23.77;;;;;;;;;;5016653;28;20564;-81
2022/12/01 10:59:55;;;;;;;100.30;23.98;;;;;;;;;;5051803;28;20117;-81
2022/12/01 11:02:23;;;;;;;87.15;23.48;;;;;;;;;;5054945;28;20105;-82
2022/12/01 11:04:54;;;;;;;85.38;24.27;;;;;;;;;;5052374;28;20076;-80
2022/12/01 11:07:22;;;;;;;101.95;25.67;;;;;;;;;;5035786;28;20056;-81
2022/12/01 11:10:02;;;;;;;96.80;24.88;;;;;;;;;;5018238;28;20045;-82
2022/12/01 11:12:28;;;;;;;81.38;23.05;;;;;;;;;;5017420;28;20048;-80
2022/12/01 11:14:56;;;;;;;96.60;24.65;;;;;;;;;;5016624;28;20052;-81
2022/12/01 11:17:25;;;;;;;94.70;25.00;;;;;;;;;;5016761;28;20046;-81
2022/12/01 11:19:52;;;;;;;98.82;23.05;;;;;;;;;;5033481;28;20605;-81
2022/12/01 11:22:29;;;;;;;88.88;23.95;;;;;;;;;;5016925;28;20057;-79
2022/12/01 11:24:56;;;;;;;109.15;26.92;;;;;;;;;;5033994;28;20061;-81
2022/12/01 11:27:24;;;;;;;106.45;26.30;;;;;;;;;;5033875;28;20080;-81
2022/12/01 11:29:53;;;;;;;109.05;25.98;;;;;;;;;;5034349;28;20056;-81
2022/12/01 11:32:19;;;;;;;103.82;25.70;;;;;;;;;;5034768;28;20049;-81
2022/12/01 11:35:04;;;;;;;104.95;25.38;;;;;;;;;;5035144;28;20068;-82
2022/12/01 11:37:38;;;;;;;100.73;25.27;;;;;;;;;;5034203;28;20524;-81
2022/12/01 11:40:24;;;;;;;101.55;26.48;;;;;;;;;;5034674;28;20118;-82
2022/12/01 11:42:52;;;;;;;103.50;25.52;;;;;;;;;;5040885;28;20059;-80
2022/12/01 11:45:19;;;;;;;101.60;24.90;;;;;;;;;;5015558;28;20049;-81
2022/12/01 11:48:00;;;;;;;104.50;25.77;;;;;;;;;;5016416;28;20072;-82
2022/12/01 11:50:28;;;;;;;101.95;25.75;;;;;;;;;;5033747;28;20053;-81
2022/12/01 11:52:55;;;;;;;104.05;26.27;;;;;;;;;;5034400;28;20045;-81
2022/12/01 11:55:22;;;;;;;102.55;26.67;;;;;;;;;;5034045;28;20041;-82
2022/12/01 11:57:51;;;;;;;111.47;25.65;;;;;;;;;;5034324;28;20123;-82
2022/12/01 12:00:21;;;;;;;95.60;25.10;;;;;;;;;;5034751;28;20514;-82
2022/12/01 12:03:03;;;;;;;106.30;25.80;;;;;;;;;;5016226;28;20079;-81
2022/12/01 12:05:45;;;;;;;101.35;25.38;;;;;;;;;;5033112;28;20152;-81
2022/12/01 12:08:17;;;;;;;101.43;24.33;;;;;;;;;;5034972;28;20049;-81
2022/12/01 12:11:13;;;;;;;101.57;25.45;;;;;;;;;;5026844;28;20053;-80
2022/12/01 12:13:41;;;;;;;110.28;27.70;;;;;;;;;;5032939;28;20060;-79
2022/12/01 12:16:13;;;;;;;106.85;27.33;;;;;;;;;;5052660;28;20095;-79
2022/12/01 12:18:48;;;;;;;109.28;27.58;;;;;;;;;;5051834;28;20076;-79
2022/12/01 12:21:22;;;;;;;93.38;26.38;;;;;;;;;;5053081;28;20072;-79
2022/12/01 12:24:07;;;;;;;102.50;27.02;;;;;;;;;;5036359;28;20064;-80
2022/12/01 12:26:39;;;;;;;95.10;26.27;;;;;;;;;;5033505;28;20081;-80
2022/12/01 12:29:06;;;;;;;93.78;23.27;;;;;;;;;;5040408;28;20221;-83
2022/12/01 12:31:42;;;;;;;98.55;25.50;;;;;;;;;;5038951;28;20053;-80
2022/12/01 12:34:21;;;;;;;99.38;25.75;;;;;;;;;;5044290;28;20407;-82
2022/12/01 12:36:59;;;;;;;113.95;26.95;;;;;;;;;;5037066;28;20109;-80
2022/12/01 12:39:45;;;;;;;106.82;26.98;;;;;;;;;;5037232;28;20039;-80
2022/12/01 12:42:26;;;;;;;111.20;27.92;;;;;;;;;;5048446;28;20064;-81
2022/12/01 12:45:07;;;;;;;107.45;28.23;;;;;;;;;;5015015;28;20042;-82
2022/12/01 12:47:33;;;;;;;104.85;27.13;;;;;;;;;;5035840;28;20049;-81
2022/12/01 12:50:09;;;;;;;108.85;27.05;;;;;;;;;;5032556;28;20041;-81
2022/12/01 12:52:40;;;;;;;119.15;26.67;;;;;;;;;;5031593;28;20046;-81
2022/12/01 12:55:13;;;;;;;106.40;26.83;;;;;;;;;;5032645;28;20046;-81
2022/12/01 12:57:44;;;;;;;103.60;27.35;;;;;;;;;;5031898;28;20089;-80
2022/12/01 13:00:19;;;;;;;107.25;27.13;;;;;;;;;;5013847;28;20049;-81
2022/12/01 13:02:48;;;;;;;100.50;27.50;;;;;;;;;;5019904;28;20053;-81
2022/12/01 13:05:20;;;;;;;101.07;27.70;;;;;;;;;;5012615;28;20053;-82
2022/12/01 13:08:06;;;;;;;122.53;29.88;;;;;;;;;;5012768;28;20063;-81
2022/12/01 13:10:38;;;;;;;116.38;28.83;;;;;;;;;;5012849;28;20045;-81
2022/12/01 13:13:15;;;;;;;114.45;28.05;;;;;;;;;;5031281;28;20437;-83
2022/12/01 13:15:42;;;;;;;107.78;28.88;;;;;;;;;;5033699;28;20057;-82
2022/12/01 13:18:15;;;;;;;113.93;28.48;;;;;;;;;;5032642;28;20049;-83
2022/12/01 13:20:42;;;;;;;103.05;27.98;;;;;;;;;;5015137;28;20041;-83
2022/12/01 13:23:13;;;;;;;101.55;29.23;;;;;;;;;;5032311;28;20064;-82
2022/12/01 13:25:41;;;;;;;103.25;28.45;;;;;;;;;;5032103;28;20049;-82
2022/12/01 13:28:16;;;;;;;107.05;28.40;;;;;;;;;;5043906;28;20049;-81
2022/12/01 13:30:56;;;;;;;103.93;28.05;;;;;;;;;;5029931;28;20175;-82
2022/12/01 13:33:23;;;;;;;111.72;30.13;;;;;;;;;;5012714;28;20042;-82
2022/12/01 13:35:53;;;;;;;107.70;29.00;;;;;;;;;;5030450;28;20059;-81
2022/12/01 13:38:39;;;;;;;100.82;28.67;;;;;;;;;;5030605;28;20045;-83
2022/12/01 13:41:12;;;;;;;114.60;28.85;;;;;;;;;;5031085;28;20068;-82
2022/12/01 13:44:05;;;;;;;109.68;29.98;;;;;;;;;;5022137;28;20053;-81
2022/12/01 13:46:49;;;;;;;115.43;30.83;;;;;;;;;;5011398;28;20306;-82
2022/12/01 13:49:39;;;;;;;117.35;29.67;;;;;;;;;;5020296;28;20080;-81
2022/12/01 13:52:21;;;;;;;121.00;29.98;;;;;;;;;;5021946;28;20051;-81
2022/12/01 13:55:06;;;;;;;106.82;28.63;;;;;;;;;;5035917;28;20357;-81
2022/12/01 13:57:33;;;;;;;115.80;29.65;;;;;;;;;;5027761;28;20748;-81
2022/12/01 13:59:59;;;;;;;123.22;30.52;;;;;;;;;;5038003;28;20050;-81
2022/12/01 14:02:27;;;;;;;134.25;32.80;;;;;;;;;;5040367;28;20163;-80
2022/12/01 14:04:53;;;;;;;141.77;35.38;;;;;;;;;;5031727;28;20576;-79
2022/12/01 14:07:33;;;;;;;148.50;34.90;;;;;;;;;;5019420;28;20076;-83
2022/12/01 14:10:20;;;;;;;133.40;33.00;;;;;;;;;;5029723;28;20414;-82
2022/12/01 14:12:47;;;;;;;150.32;35.10;;;;;;;;;;5030951;28;20234;-81
2022/12/01 14:15:22;;;;;;;159.25;36.70;;;;;;;;;;5029458;28;20071;-81
2022/12/01 14:17:57;;;;;;;153.90;34.22;;;;;;;;;;5023685;28;20054;-82
2022/12/01 14:20:26;;;;;;;149.75;37.45;;;;;;;;;;5007669;28;20038;-81
2022/12/01 14:23:12;;;;;;;157.75;36.25;;;;;;;;;;5025628;28;20097;-80
2022/12/01 14:25:39;;;;;;;155.82;36.90;;;;;;;;;;5027922;28;20050;-80
2022/12/01 14:28:12;;;;;;;160.10;36.05;;;;;;;;;;5024001;28;20144;-83
2022/12/01 14:30:43;;;;;;;147.57;36.08;;;;;;;;;;5028168;28;20045;-84
2022/12/01 14:33:28;;;;;;;143.32;36.63;;;;;;;;;;5028759;28;20050;-80